Nearby METAR Reports


RPLC - Angeles/Pampanga, Philippines
Distance from station: S 166km
Updated: Wed, 12-May-2021 4:00pm PST
Mostly cloudy
Mostly cloudy
 Wind from S
Wind: S 15 km/h
Temperature: 35°C
Heat Index: 41°C
Dew Point: 23°C
Humidity: 50%
Barometer: 1008 hPa
Clouds: Mostly cloudy
Visibility: 10 km
Cloud details: Partly cloudy 610 m
Mostly cloudy 9144 m
2021/05/12 08:00 RPLC 120800Z 18008KT 9999 SCT020 BKN300 35/23 Q1008 NOSIG RMK A2977
RPLI - Laoag Intl Airport, Philippines
Distance from station: N 171km
Updated: Wed, 12-May-2021 4:00pm PST
Partly cloudy
Partly cloudy
 Wind from NNW
Wind: NNW 17 km/h
Temperature: 31°C
Heat Index: 43°C
Dew Point: 28°C
Humidity: 84%
Barometer: 1007 hPa
Clouds: Partly cloudy
Visibility: 10 km
Cloud details: Few Clouds 518 m
Partly cloudy 549 m
2021/05/12 08:00 RPLI 120800Z 33009KT 9999 FEW017CB SCT018 31/28 Q1007 NOSIG RMK A2974 CB NE-SE
 
RPLB - Olongapo/Subic, Philippines
Distance from station: S 205km
Updated: Wed, 12-May-2021 4:00pm PST
Partly cloudy
Partly cloudy
 Wind from E
Wind: E 20 km/h
Temperature: 36°C
Heat Index: 40°C
Dew Point: 21°C
Humidity: 42%
Barometer: 1007 hPa
Clouds: Partly cloudy
Visibility: 10 km
Cloud details: Few Clouds 549 m
Partly cloudy 610 m
2021/05/12 08:00 RPLB 120800Z 10011KT 080V140 9999 FEW018TCU SCT020 36/21 Q1007 NOSIG RMK A2974 TCU N
RPLL - Ninoy Aquino Intl Airport, Philippines
Distance from station: SSE 247km
Updated: Wed, 12-May-2021 4:00pm PST
Few Clouds
Few Clouds
 Wind from SE
Wind: SE 17 km/h
Temperature: 35°C
Heat Index: 42°C
Dew Point: 24°C
Humidity: 53%
Barometer: 1007 hPa
Clouds: Few Clouds
Visibility: 10 km
Cloud details: Few Clouds 762 m
2021/05/12 08:00 RPLL 120800Z 13009KT 070V190 9999 FEW025 35/24 Q1007 NOSIG RMK A2974